Time;durP1;ratioP1;P1;durP2;ratioP2;P2;SDS_P1;SDS_P2;PMS_P1;PMS_P2;Temp;Humidity;BMP_temperature;BMP_pressure;BME280_temperature;BME280_humidity;BME280_pressure;Samples;Min_cycle;Max_cycle;Signal;HPM_P1;HPM_P2
2023/07/18 00:01:49;;;;;;;21.85;9.73;;;27.00;99.30;;;;;;5018189;28;20034;-84
2023/07/18 00:04:16;;;;;;;14.48;8.77;;;26.90;99.90;;;;;;4981548;28;20034;-84
2023/07/18 00:06:45;;;;;;;16.88;8.30;;;26.80;99.90;;;;;;4997640;28;20121;-84
2023/07/18 00:09:12;;;;;;;18.25;9.30;;;26.80;99.90;;;;;;5009179;28;20030;-83
2023/07/18 00:11:39;;;;;;;17.30;9.77;;;26.80;99.90;;;;;;5011173;28;20042;-75
2023/07/18 00:14:07;;;;;;;13.75;9.15;;;26.80;99.90;;;;;;4992556;28;20050;-81
2023/07/18 00:16:34;;;;;;;13.40;8.43;;;26.80;99.90;;;;;;4997603;28;20053;-85
2023/07/18 00:19:01;;;;;;;18.15;8.55;;;26.80;99.90;;;;;;4982324;28;20044;-82
2023/07/18 00:21:29;;;;;;;14.15;8.38;;;26.70;99.90;;;;;;5016437;28;20054;-80
2023/07/18 00:23:59;;;;;;;15.80;8.80;;;26.50;99.90;;;;;;4999859;28;20462;-83
2023/07/18 00:26:26;;;;;;;;;;;26.50;99.90;;;;;;5017633;28;20116;-84
2023/07/18 00:28:54;;;;;;;14.27;7.80;;;26.60;99.90;;;;;;5016159;28;19952;-84
2023/07/18 00:31:21;;;;;;;10.65;7.78;;;26.60;99.90;;;;;;4995654;28;20065;-80
2023/07/18 00:33:51;;;;;;;11.40;7.45;;;26.40;99.90;;;;;;5009546;28;20042;-81
2023/07/18 00:36:18;;;;;;;13.88;7.72;;;26.40;99.90;;;;;;4995032;28;20072;-76
2023/07/18 00:38:46;;;;;;;15.35;6.60;;;26.40;99.90;;;;;;5012417;28;20038;-75
2023/07/18 00:41:13;;;;;;;14.18;6.55;;;26.30;99.90;;;;;;4996384;28;20190;-75
2023/07/18 00:43:40;;;;;;;13.18;7.50;;;26.10;99.90;;;;;;4995277;28;20453;-77
2023/07/18 00:46:10;;;;;;;14.88;6.50;;;26.10;99.90;;;;;;5012924;28;20072;-78
2023/07/18 00:48:37;;;;;;;11.87;7.40;;;26.10;99.90;;;;;;5012675;28;20045;-77
2023/07/18 00:51:04;;;;;;;12.63;8.23;;;26.00;99.90;;;;;;4983283;28;20060;-78
2023/07/18 00:53:32;;;;;;;12.63;6.72;;;26.00;99.90;;;;;;4990769;28;20080;-75
2023/07/18 00:56:01;;;;;;;10.90;7.00;;;26.10;99.90;;;;;;4994522;28;20137;-77
2023/07/18 00:58:29;;;;;;;13.07;6.97;;;26.20;99.90;;;;;;5009339;28;20168;-79
2023/07/18 01:00:56;;;;;;;12.25;7.45;;;26.00;99.90;;;;;;5012673;28;20053;-80
2023/07/18 01:03:24;;;;;;;11.00;7.50;;;26.10;99.90;;;;;;5010896;28;20058;-79
2023/07/18 01:05:54;;;;;;;15.10;7.55;;;26.10;99.90;;;;;;4995455;28;20049;-86
2023/07/18 01:08:21;;;;;;;12.98;7.53;;;26.10;99.90;;;;;;5012497;28;20104;-82
2023/07/18 01:10:50;;;;;;;12.20;7.68;;;26.10;99.90;;;;;;5013255;28;20037;-79
2023/07/18 01:13:17;;;;;;;12.65;7.45;;;26.10;99.90;;;;;;4995752;28;20408;-81
2023/07/18 01:15:46;;;;;;;12.73;7.20;;;26.10;99.90;;;;;;4995592;28;20046;-82
2023/07/18 01:18:14;;;;;;;13.33;7.13;;;26.10;99.90;;;;;;5012435;28;20038;-83
2023/07/18 01:20:45;;;;;;;11.38;7.40;;;26.10;99.90;;;;;;4994196;28;20353;-83
2023/07/18 01:23:13;;;;;;;17.67;7.55;;;26.00;99.90;;;;;;4995347;28;20470;-83
2023/07/18 01:25:42;;;;;;;17.30;7.82;;;25.90;99.90;;;;;;4995477;28;20033;-83
2023/07/18 01:28:10;;;;;;;11.77;7.40;;;25.80;99.90;;;;;;4982783;28;20039;-79
2023/07/18 01:30:38;;;;;;;12.23;7.43;;;25.80;99.90;;;;;;5007899;28;20492;-83
2023/07/18 01:33:06;;;;;;;11.45;7.53;;;25.70;99.90;;;;;;4977969;28;20041;-77
2023/07/18 01:35:34;;;;;;;13.80;9.38;;;25.80;99.90;;;;;;5011220;28;20096;-81
2023/07/18 01:38:01;;;;;;;17.02;10.48;;;25.80;99.90;;;;;;5010559;28;20046;-79
2023/07/18 01:40:29;;;;;;;17.10;9.32;;;25.80;99.90;;;;;;5011185;28;20034;-80
2023/07/18 01:42:57;;;;;;;12.18;7.97;;;25.90;99.90;;;;;;4992051;28;20066;-80
2023/07/18 01:45:27;;;;;;;14.43;8.23;;;25.80;99.90;;;;;;4992792;28;20034;-78
2023/07/18 01:47:56;;;;;;;13.80;8.07;;;25.80;99.90;;;;;;4976015;28;20069;-79
2023/07/18 01:50:24;;;;;;;13.73;9.30;;;26.00;99.90;;;;;;4977191;28;20149;-80
2023/07/18 01:52:52;;;;;;;17.02;8.95;;;26.00;99.90;;;;;;4979446;28;20046;-79
2023/07/18 01:55:19;;;;;;;11.20;7.88;;;25.90;99.90;;;;;;4987131;28;20092;-80
2023/07/18 01:57:48;;;;;;;13.20;7.85;;;25.90;99.90;;;;;;4970165;28;20042;-79
2023/07/18 02:00:18;;;;;;;11.57;7.22;;;25.90;99.90;;;;;;4988976;28;20058;-79
2023/07/18 02:02:51;;;;;;;11.50;7.35;;;25.90;99.90;;;;;;4996241;28;20030;-79
2023/07/18 02:05:23;;;;;;;11.43;7.47;;;26.00;99.90;;;;;;4994770;28;20050;-79
2023/07/18 02:07:50;;;;;;;12.55;7.88;;;26.10;99.90;;;;;;4996430;28;20038;-81
2023/07/18 02:10:20;;;;;;;13.32;7.55;;;25.80;99.90;;;;;;4970361;28;20141;-80
2023/07/18 02:12:49;;;;;;;11.73;6.68;;;25.80;99.90;;;;;;5014708;28;20042;-80
2023/07/18 02:15:16;;;;;;;12.10;6.85;;;25.80;99.90;;;;;;4978927;28;20045;-80
2023/07/18 02:17:44;;;;;;;12.57;6.40;;;25.80;99.90;;;;;;4976325;28;20041;-79
2023/07/18 02:20:14;;;;;;;12.85;7.00;;;25.80;99.90;;;;;;4994243;28;20047;-80
2023/07/18 02:22:43;;;;;;;10.73;6.13;;;25.80;99.90;;;;;;5013692;28;20061;-80
2023/07/18 02:25:10;;;;;;;12.15;6.82;;;25.80;99.90;;;;;;5015968;28;20397;-81
2023/07/18 02:27:41;;;;;;;11.00;6.97;;;25.80;99.90;;;;;;4979543;28;20037;-80
2023/07/18 02:30:27;;;;;;;11.63;6.70;;;25.80;99.90;;;;;;4998182;28;20177;-80
2023/07/18 02:32:54;;;;;;;11.80;7.18;;;25.70;99.90;;;;;;4980194;28;20169;-81
2023/07/18 02:35:23;;;;;;;11.93;7.03;;;25.60;99.90;;;;;;4979455;28;20076;-79
2023/07/18 02:37:50;;;;;;;13.43;7.18;;;25.50;99.90;;;;;;4979299;28;20087;-79
2023/07/18 02:40:18;;;;;;;12.55;6.85;;;25.60;99.90;;;;;;5012886;28;20440;-80
2023/07/18 02:42:45;;;;;;;12.10;7.35;;;25.70;99.90;;;;;;4978352;28;20057;-79
2023/07/18 02:45:12;;;;;;;16.20;7.78;;;25.80;99.90;;;;;;5013388;28;20125;-78
2023/07/18 02:47:40;;;;;;;13.73;7.22;;;25.80;99.90;;;;;;5011868;28;20044;-81
2023/07/18 02:50:08;;;;;;;13.38;8.00;;;25.70;99.90;;;;;;5013887;28;20389;-81
2023/07/18 02:52:35;;;;;;;12.10;7.30;;;25.50;99.90;;;;;;4980671;28;20042;-81
2023/07/18 02:55:03;;;;;;;15.35;8.15;;;25.60;99.90;;;;;;5014485;28;20122;-80
2023/07/18 02:57:47;;;;;;;10.90;7.50;;;25.50;99.90;;;;;;4978593;28;20038;-82
2023/07/18 03:00:33;;;;;;;11.93;7.47;;;25.40;99.90;;;;;;5011707;28;20366;-80
2023/07/18 03:03:00;;;;;;;13.32;7.88;;;25.50;99.90;;;;;;5014101;28;20399;-82
2023/07/18 03:05:29;;;;;;;11.35;6.93;;;25.50;99.90;;;;;;5013432;28;20104;-81
2023/07/18 03:07:57;;;;;;;13.93;7.47;;;25.50;99.90;;;;;;4993605;28;20062;-79
2023/07/18 03:10:29;;;;;;;12.57;7.53;;;25.50;99.90;;;;;;5011475;28;20045;-82
2023/07/18 03:12:57;;;;;;;14.13;7.85;;;25.40;99.90;;;;;;5015587;28;20084;-80
2023/07/18 03:15:24;;;;;;;13.30;6.80;;;25.40;99.90;;;;;;4983068;28;20113;-80
2023/07/18 03:17:52;;;;;;;14.07;8.20;;;25.30;99.90;;;;;;4993389;28;20439;-80
2023/07/18 03:20:19;;;;;;;14.90;8.00;;;25.30;99.90;;;;;;4993478;28;20084;-78
2023/07/18 03:22:50;;;;;;;16.45;8.68;;;25.20;99.90;;;;;;5012485;28;20044;-80
2023/07/18 03:25:20;;;;;;;17.63;9.10;;;25.10;99.90;;;;;;4991700;28;20449;-80
2023/07/18 03:27:48;;;;;;;15.63;7.90;;;25.30;99.90;;;;;;5010798;28;20048;-80
2023/07/18 03:30:16;;;;;;;16.55;8.75;;;25.30;99.90;;;;;;5013494;28;20505;-80
2023/07/18 03:32:43;;;;;;;11.95;8.20;;;25.10;99.90;;;;;;4979352;28;20093;-80
2023/07/18 03:35:14;;;;;;;14.70;8.27;;;25.20;99.90;;;;;;5014139;28;20058;-80
2023/07/18 03:37:42;;;;;;;14.07;7.65;;;25.30;99.90;;;;;;4979662;28;20069;-80
2023/07/18 03:40:15;;;;;;;12.57;7.60;;;25.40;99.90;;;;;;4988189;28;20069;-81
2023/07/18 03:42:44;;;;;;;11.82;8.50;;;25.40;99.90;;;;;;5011372;28;20096;-82
2023/07/18 03:45:13;;;;;;;11.88;7.93;;;25.30;99.90;;;;;;4997764;28;20054;-81
2023/07/18 03:47:41;;;;;;;12.85;7.15;;;25.30;99.90;;;;;;4997718;28;20425;-78
2023/07/18 03:50:11;;;;;;;10.65;7.00;;;25.20;99.90;;;;;;4996218;28;20377;-81
2023/07/18 03:52:39;;;;;;;12.57;8.25;;;25.30;99.90;;;;;;4980623;28;20393;-80
2023/07/18 03:55:08;;;;;;;12.48;7.30;;;25.10;99.90;;;;;;5017321;28;20065;-82
2023/07/18 03:57:39;;;;;;;12.05;7.68;;;25.30;99.90;;;;;;4967346;28;20120;-82
2023/07/18 04:00:13;;;;;;;12.00;7.20;;;25.40;99.90;;;;;;4980980;28;20061;-81
2023/07/18 04:02:42;;;;;;;9.02;6.50;;;25.20;99.90;;;;;;5014402;28;20045;-82
2023/07/18 04:05:14;;;;;;;12.38;6.57;;;25.20;99.90;;;;;;4998113;28;20038;-82
2023/07/18 04:07:43;;;;;;;10.52;6.63;;;25.10;99.90;;;;;;5014666;28;20030;-82
2023/07/18 04:10:13;;;;;;;10.43;6.53;;;25.20;99.90;;;;;;5021116;28;20037;-82
2023/07/18 04:12:41;;;;;;;11.48;6.53;;;25.20;99.90;;;;;;4979693;28;20129;-80
2023/07/18 04:15:10;;;;;;;15.13;6.65;;;25.20;99.90;;;;;;5011576;28;20026;-79
2023/07/18 04:17:38;;;;;;;13.13;7.28;;;25.10;99.90;;;;;;4978839;28;20040;-80
2023/07/18 04:20:06;;;;;;;12.27;7.68;;;25.30;99.90;;;;;;5006947;28;20042;-81
2023/07/18 04:22:34;;;;;;;11.77;7.68;;;25.30;99.90;;;;;;4979917;28;20563;-79
2023/07/18 04:25:04;;;;;;;;;;;25.30;99.90;;;;;;5013027;28;20048;-80
2023/07/18 04:27:32;;;;;;;10.50;6.72;;;25.30;99.90;;;;;;4976584;28;20012;-79
2023/07/18 04:29:59;;;;;;;10.98;7.05;;;25.30;99.90;;;;;;5011997;28;20038;-80
2023/07/18 04:32:26;;;;;;;10.65;6.95;;;25.40;99.90;;;;;;4993036;28;20121;-81
2023/07/18 04:34:53;;;;;;;15.65;7.82;;;25.30;99.90;;;;;;5013905;28;20073;-81
2023/07/18 04:37:21;;;;;;;13.02;7.88;;;25.40;99.90;;;;;;5012472;28;20046;-82
2023/07/18 04:39:48;;;;;;;10.98;7.50;;;25.50;99.90;;;;;;4997188;28;20058;-82
2023/07/18 04:42:16;;;;;;;10.43;7.60;;;25.60;99.90;;;;;;4978163;28;20061;-79
2023/07/18 04:44:43;;;;;;;11.35;7.40;;;25.80;99.90;;;;;;4983133;28;20037;-81
2023/07/18 04:47:10;;;;;;;15.43;7.93;;;26.00;99.90;;;;;;4981851;28;20065;-85
2023/07/18 04:49:39;;;;;;;45.63;29.58;;;26.00;99.90;;;;;;4999492;28;20351;-81
2023/07/18 04:52:07;;;;;;;135.85;93.93;;;26.00;99.90;;;;;;5010206;28;20391;-79
2023/07/18 04:54:35;;;;;;;64.75;51.47;;;25.90;99.90;;;;;;5014267;28;20079;-78
2023/07/18 04:57:02;;;;;;;83.35;60.70;;;25.80;99.90;;;;;;4994139;28;20050;-79
2023/07/18 04:59:32;;;;;;;102.07;68.13;;;25.80;99.90;;;;;;5011609;28;20448;-78
2023/07/18 05:02:01;;;;;;;86.47;59.55;;;25.80;99.90;;;;;;5010893;28;20085;-74
2023/07/18 05:04:29;;;;;;;62.88;43.40;;;25.80;99.90;;;;;;5010861;28;20037;-76
2023/07/18 05:06:58;;;;;;;97.85;70.47;;;25.90;99.90;;;;;;5012292;28;20049;-84
2023/07/18 05:09:27;;;;;;;47.03;32.85;;;26.00;99.90;;;;;;5012031;28;20030;-82
2023/07/18 05:11:55;;;;;;;22.98;16.08;;;26.00;99.90;;;;;;4994894;28;20076;-76
2023/07/18 05:14:22;;;;;;;19.55;11.73;;;26.00;99.90;;;;;;5005934;28;20053;-82
2023/07/18 05:16:50;;;;;;;17.83;11.50;;;25.80;99.90;;;;;;4994945;28;20044;-77
2023/07/18 05:19:19;;;;;;;16.02;11.75;;;26.00;99.90;;;;;;4997057;28;20049;-81
2023/07/18 05:21:46;;;;;;;15.10;10.85;;;26.10;99.90;;;;;;4979321;28;20042;-79
2023/07/18 05:24:15;;;;;;;16.42;9.90;;;26.10;99.90;;;;;;4996260;28;20030;-83
2023/07/18 05:26:42;;;;;;;103.57;67.90;;;26.20;99.90;;;;;;4991555;28;20096;-80
2023/07/18 05:29:09;;;;;;;36.17;26.00;;;26.20;99.90;;;;;;5006352;28;20496;-82
2023/07/18 05:31:36;;;;;;;24.73;16.92;;;26.40;99.90;;;;;;5016818;28;20044;-89
2023/07/18 05:34:04;;;;;;;22.02;11.55;;;26.30;99.90;;;;;;4999074;28;20092;-88
2023/07/18 05:36:32;;;;;;;21.25;13.95;;;26.30;99.90;;;;;;5005128;28;20108;-79
2023/07/18 05:39:00;;;;;;;19.67;11.65;;;26.40;99.90;;;;;;4982122;28;20545;-83
2023/07/18 05:41:27;;;;;;;18.33;10.32;;;26.70;99.90;;;;;;5024516;28;20044;-86
2023/07/18 05:43:56;;;;;;;18.63;10.38;;;26.50;99.90;;;;;;5021722;28;20044;-83
2023/07/18 05:46:25;;;;;;;15.35;10.43;;;26.60;99.90;;;;;;5010381;28;20097;-83
2023/07/18 05:48:52;;;;;;;14.70;10.68;;;26.80;99.90;;;;;;5005440;28;20389;-78
2023/07/18 05:51:20;;;;;;;63.22;39.10;;;26.80;99.90;;;;;;5018181;28;20065;-79
2023/07/18 05:53:48;;;;;;;54.65;38.08;;;26.90;99.90;;;;;;5002349;28;20038;-79
2023/07/18 05:56:16;;;;;;;144.40;102.97;;;26.90;99.90;;;;;;4989706;28;20038;-86
2023/07/18 05:58:46;;;;;;;85.63;62.75;;;27.00;99.90;;;;;;5004842;28;20045;-86
2023/07/18 06:01:13;;;;;;;29.17;22.77;;;27.00;99.90;;;;;;5004901;28;20489;-81
2023/07/18 06:03:41;;;;;;;30.30;19.42;;;27.00;99.90;;;;;;5006296;28;20046;-80
2023/07/18 06:06:09;;;;;;;22.77;15.55;;;26.90;99.90;;;;;;5010510;28;20038;-82
2023/07/18 06:08:37;;;;;;;27.67;15.77;;;26.90;99.90;;;;;;4988753;28;20048;-85
2023/07/18 06:11:04;;;;;;;26.13;15.70;;;27.00;99.90;;;;;;5000459;28;20030;-78
2023/07/18 06:13:32;;;;;;;19.88;12.55;;;27.10;99.90;;;;;;4971212;28;20102;-82
2023/07/18 06:15:59;;;;;;;25.08;15.27;;;26.90;99.90;;;;;;5022666;28;20450;-89
2023/07/18 06:18:30;;;;;;;18.35;11.30;;;26.90;99.90;;;;;;4987946;28;20046;-84
2023/07/18 06:21:00;;;;;;;17.83;11.65;;;26.90;99.90;;;;;;5018270;28;20456;-89
2023/07/18 06:23:29;;;;;;;24.75;12.02;;;27.00;99.90;;;;;;4999941;28;20026;-80
2023/07/18 06:25:56;;;;;;;19.95;12.55;;;27.10;99.90;;;;;;4993622;28;20046;-85
2023/07/18 06:28:29;;;;;;;21.65;11.95;;;27.10;99.90;;;;;;5026854;28;20065;-88
2023/07/18 06:30:57;;;;;;;21.23;12.65;;;27.10;99.90;;;;;;4977797;28;20096;-82
2023/07/18 06:33:25;;;;;;;19.73;12.05;;;27.20;99.90;;;;;;5019948;28;20043;-85
2023/07/18 06:35:54;;;;;;;20.67;12.02;;;27.20;99.90;;;;;;5010051;28;20051;-93
2023/07/18 06:38:24;;;;;;;19.50;11.75;;;27.10;99.90;;;;;;5010837;28;20113;-90
2023/07/18 06:40:52;;;;;;;18.27;11.63;;;27.20;99.90;;;;;;5026757;28;20045;-85
2023/07/18 06:43:21;;;;;;;18.73;11.43;;;27.20;99.90;;;;;;5005458;28;20053;-82
2023/07/18 06:45:48;;;;;;;17.92;10.38;;;27.30;99.90;;;;;;5003041;28;20085;-82
2023/07/18 06:48:16;;;;;;;20.40;12.10;;;27.40;99.90;;;;;;4993683;28;20069;-88
2023/07/18 06:50:49;;;;;;;21.42;11.80;;;27.40;99.90;;;;;;4974978;28;20042;-82
2023/07/18 06:53:19;;;;;;;17.48;11.88;;;27.50;99.90;;;;;;5004472;28;20068;-90
2023/07/18 06:55:49;;;;;;;23.23;10.50;;;27.50;99.90;;;;;;5010523;28;20038;-86
2023/07/18 06:58:18;;;;;;;16.77;11.15;;;27.60;99.90;;;;;;5022551;28;20433;-81
2023/07/18 07:00:46;;;;;;;21.35;11.15;;;27.70;99.90;;;;;;4985768;28;20044;-80
2023/07/18 07:03:22;;;;;;;20.15;11.55;;;27.90;99.90;;;;;;5008427;28;20187;-89
2023/07/18 07:05:49;;;;;;;;;;;27.90;99.90;;;;;;5007940;28;20053;-81
2023/07/18 07:08:19;;;;;;;15.05;10.82;;;27.90;99.90;;;;;;5005369;28;19928;-79
2023/07/18 07:10:46;;;;;;;21.57;11.83;;;28.00;99.90;;;;;;5006273;28;20046;-89
2023/07/18 07:13:13;;;;;;;18.33;12.68;;;28.20;99.90;;;;;;4999427;28;20141;-85
2023/07/18 07:15:41;;;;;;;21.00;11.68;;;28.20;99.90;;;;;;5024393;28;20056;-87
2023/07/18 07:18:08;;;;;;;21.73;11.48;;;28.20;99.90;;;;;;5026989;28;20049;-87
2023/07/18 07:20:35;;;;;;;19.05;11.18;;;28.30;99.90;;;;;;4992393;28;20038;-89
2023/07/18 07:23:03;;;;;;;20.23;11.35;;;28.30;99.90;;;;;;5005868;28;20037;-85
2023/07/18 07:25:31;;;;;;;18.77;10.55;;;28.30;99.90;;;;;;4989067;28;20548;-87
2023/07/18 07:27:59;;;;;;;19.63;11.00;;;28.40;99.90;;;;;;5002379;28;20042;-79
2023/07/18 07:30:28;;;;;;;21.63;12.02;;;28.40;99.90;;;;;;5021040;28;20481;-88
2023/07/18 07:32:58;;;;;;;22.42;12.23;;;28.30;99.90;;;;;;5026920;28;20034;-85
2023/07/18 07:35:34;;;;;;;27.60;11.70;;;28.30;99.90;;;;;;5008313;28;20050;-87
2023/07/18 07:38:01;;;;;;;22.15;11.40;;;28.40;99.90;;;;;;4989282;28;20038;-86
2023/07/18 07:40:29;;;;;;;25.67;11.98;;;28.50;99.90;;;;;;5003707;28;20045;-89
2023/07/18 07:42:57;;;;;;;21.60;13.55;;;28.60;99.90;;;;;;5008271;28;20037;-89
2023/07/18 07:45:24;;;;;;;19.13;11.38;;;28.60;99.90;;;;;;5008470;28;20081;-88
2023/07/18 07:47:51;;;;;;;18.30;11.63;;;28.70;99.90;;;;;;5008480;28;20073;-86
2023/07/18 07:50:19;;;;;;;21.90;12.45;;;28.70;99.90;;;;;;5005059;28;20109;-86
2023/07/18 07:52:46;;;;;;;20.17;12.10;;;28.70;99.90;;;;;;5003702;28;20062;-87
2023/07/18 07:55:15;;;;;;;21.25;12.27;;;28.70;99.90;;;;;;5001014;28;20045;-87
2023/07/18 07:57:56;;;;;;;20.45;12.77;;;28.70;99.90;;;;;;5017597;28;20042;-87
2023/07/18 08:00:24;;;;;;;21.92;11.35;;;28.80;99.90;;;;;;5017016;28;20115;-79
2023/07/18 08:02:52;;;;;;;21.05;11.57;;;28.80;99.90;;;;;;5001598;28;20046;-82
2023/07/18 08:05:22;;;;;;;25.92;12.65;;;28.90;99.90;;;;;;5006162;28;20068;-81
2023/07/18 08:07:50;;;;;;;19.48;10.98;;;29.10;99.90;;;;;;5001742;28;20072;-78
2023/07/18 08:10:17;;;;;;;16.65;11.48;;;29.10;99.90;;;;;;4985666;28;20042;-84
2023/07/18 08:12:45;;;;;;;19.65;11.45;;;29.10;99.90;;;;;;5014901;28;20052;-77
2023/07/18 08:15:12;;;;;;;18.13;11.75;;;29.20;99.90;;;;;;4998054;28;20073;-81
2023/07/18 08:17:39;;;;;;;20.55;12.27;;;29.30;99.90;;;;;;4985449;28;20158;-81
2023/07/18 08:20:08;;;;;;;20.85;11.65;;;29.40;99.90;;;;;;4973531;28;20045;-78
2023/07/18 08:22:36;;;;;;;22.05;12.38;;;29.50;99.90;;;;;;5013776;28;20053;-88
2023/07/18 08:25:05;;;;;;;25.38;11.45;;;29.60;99.90;;;;;;4979187;28;20050;-80
2023/07/18 08:27:32;;;;;;;21.75;12.30;;;29.60;99.90;;;;;;4980434;28;20101;-79
2023/07/18 08:30:00;;;;;;;20.23;12.00;;;29.60;99.90;;;;;;4997728;28;20393;-77
2023/07/18 08:32:30;;;;;;;18.70;11.90;;;29.60;99.90;;;;;;5014861;28;20113;-83
2023/07/18 08:34:58;;;;;;;25.55;12.00;;;29.60;99.80;;;;;;4977407;28;20054;-79
2023/07/18 08:37:26;;;;;;;21.58;12.75;;;29.60;99.80;;;;;;4998925;28;20133;-78
2023/07/18 08:39:53;;;;;;;19.27;11.68;;;29.70;99.90;;;;;;4996055;28;20141;-83
2023/07/18 08:42:26;;;;;;;18.83;10.88;;;29.70;99.90;;;;;;4971461;28;20068;-85
2023/07/18 08:44:54;;;;;;;20.33;11.57;;;29.90;99.70;;;;;;5019790;28;20092;-81
2023/07/18 08:47:23;;;;;;;21.35;12.13;;;30.00;99.60;;;;;;5013784;28;20076;-80
2023/07/18 08:49:52;;;;;;;20.00;12.32;;;30.00;99.80;;;;;;5012176;28;20038;-77
2023/07/18 08:52:20;;;;;;;15.52;11.45;;;30.00;99.90;;;;;;4996566;28;20049;-86
2023/07/18 08:54:48;;;;;;;21.02;12.77;;;30.10;98.80;;;;;;5016454;28;20034;-80
2023/07/18 08:57:18;;;;;;;17.75;11.80;;;30.10;99.10;;;;;;5001703;28;20088;-83
2023/07/18 08:59:48;;;;;;;20.30;12.65;;;30.10;99.80;;;;;;4977145;28;20542;-86
2023/07/18 09:02:16;;;;;;;;;;;30.10;98.30;;;;;;5000303;28;20109;-84
2023/07/18 09:04:47;;;;;;;14.32;10.95;;;30.10;99.80;;;;;;4987886;28;20468;-78
2023/07/18 09:07:14;;;;;;;16.55;10.50;;;30.10;98.50;;;;;;4980472;28;20050;-85
2023/07/18 09:09:48;;;;;;;17.00;10.95;;;30.10;98.00;;;;;;5004116;28;20050;-82
2023/07/18 09:12:15;;;;;;;18.02;11.13;;;30.30;97.90;;;;;;4998920;28;20121;-78
2023/07/18 09:14:42;;;;;;;17.52;11.82;;;30.60;96.90;;;;;;4992729;28;20065;-81
2023/07/18 09:17:11;;;;;;;14.15;9.90;;;30.70;96.80;;;;;;4975116;28;20050;-78
2023/07/18 09:19:41;;;;;;;;;;;30.80;96.40;;;;;;5011065;28;20035;-72
2023/07/18 09:22:11;;;;;;;15.27;10.43;;;30.80;96.30;;;;;;5012911;28;19921;-74
2023/07/18 09:24:40;;;;;;;17.58;10.27;;;31.00;96.50;;;;;;4985159;28;20112;-72
2023/07/18 09:27:16;;;;;;;17.98;10.70;;;31.20;96.40;;;;;;4981565;28;20073;-80
2023/07/18 09:29:48;;;;;;;26.30;12.52;;;31.30;95.80;;;;;;5016888;28;20038;-77
2023/07/18 09:32:18;;;;;;;19.80;11.40;;;31.30;95.90;;;;;;5004071;28;20049;-80
2023/07/18 09:34:52;;;;;;;18.05;11.73;;;31.10;95.70;;;;;;5021339;28;20142;-74
2023/07/18 09:37:22;;;;;;;22.85;12.40;;;31.10;95.80;;;;;;5002897;28;20463;-75
2023/07/18 09:39:50;;;;;;;15.93;10.30;;;31.00;95.80;;;;;;4982602;28;20093;-79
2023/07/18 09:42:18;;;;;;;12.43;9.75;;;31.10;96.00;;;;;;4981234;28;20103;-75
2023/07/18 09:44:50;;;;;;;15.65;10.73;;;31.10;95.10;;;;;;5000954;28;20048;-74
2023/07/18 09:47:19;;;;;;;13.95;8.20;;;31.20;95.60;;;;;;5015895;28;20053;-72
2023/07/18 09:49:47;;;;;;;17.52;8.70;;;31.30;94.30;;;;;;5021164;28;20045;-74
2023/07/18 09:52:19;;;;;;;14.30;7.65;;;31.30;93.60;;;;;;5023197;28;20116;-79
2023/07/18 09:54:48;;;;;;;13.63;8.05;;;31.30;93.70;;;;;;5016227;28;20066;-82
2023/07/18 09:57:17;;;;;;;13.93;7.65;;;31.50;93.50;;;;;;4983343;28;20069;-77
2023/07/18 09:59:48;;;;;;;13.95;8.02;;;31.50;93.20;;;;;;5019344;28;20140;-82
2023/07/18 10:02:17;;;;;;;10.38;6.78;;;31.60;92.70;;;;;;5020541;28;20125;-77
2023/07/18 10:04:49;;;;;;;13.18;7.68;;;31.60;91.70;;;;;;4990381;28;20567;-76
2023/07/18 10:07:17;;;;;;;14.48;7.20;;;31.70;91.50;;;;;;4996941;28;20049;-81
2023/07/18 10:09:46;;;;;;;11.30;6.80;;;31.80;91.20;;;;;;5012202;28;20038;-75
2023/07/18 10:12:13;;;;;;;11.52;6.40;;;32.20;90.90;;;;;;5005470;28;20050;-82
2023/07/18 10:14:56;;;;;;;10.70;6.65;;;32.50;90.10;;;;;;5017852;28;20457;-75
2023/07/18 10:17:29;;;;;;;11.55;7.00;;;32.70;89.40;;;;;;5008278;28;20046;-76
2023/07/18 10:19:57;;;;;;;10.20;6.82;;;32.60;89.70;;;;;;5000322;28;20064;-81
2023/07/18 10:22:36;;;;;;;10.77;6.78;;;32.50;88.70;;;;;;4987048;28;20050;-81
2023/07/18 10:25:38;;;;;;;12.48;7.25;;;32.50;89.20;;;;;;4990547;28;20065;-84
2023/07/18 10:28:05;;;;;;;10.83;6.83;;;32.80;89.10;;;;;;5017649;28;20050;-82
2023/07/18 10:30:42;;;;;;;11.20;7.82;;;32.90;88.90;;;;;;5011988;28;20061;-83
2023/07/18 10:33:10;;;;;;;11.05;7.78;;;33.10;88.70;;;;;;5019477;28;20069;-82
2023/07/18 10:35:44;;;;;;;10.98;7.30;;;33.30;88.10;;;;;;4996368;28;20042;-86
2023/07/18 10:38:15;;;;;;;14.07;7.35;;;33.30;89.00;;;;;;5018005;28;20053;-84
2023/07/18 10:40:44;;;;;;;11.77;7.95;;;33.40;88.80;;;;;;4979877;28;20045;-82
2023/07/18 10:43:20;;;;;;;12.35;8.68;;;33.10;87.90;;;;;;5013496;28;20049;-75
2023/07/18 10:45:47;;;;;;;12.68;8.60;;;32.80;88.40;;;;;;4997796;28;20383;-80
2023/07/18 10:48:17;;;;;;;13.65;8.70;;;32.90;88.80;;;;;;5017267;28;20076;-75
2023/07/18 10:50:47;;;;;;;16.33;8.35;;;33.20;88.30;;;;;;5018671;28;20046;-81
2023/07/18 10:53:18;;;;;;;11.32;7.93;;;32.90;87.30;;;;;;5001417;28;20441;-81
2023/07/18 10:55:47;;;;;;;14.48;7.85;;;33.00;88.00;;;;;;5007526;28;20041;-80
2023/07/18 10:58:19;;;;;;;14.70;9.32;;;32.90;88.20;;;;;;5011187;28;20042;-80
2023/07/18 11:00:49;;;;;;;10.07;7.97;;;33.00;87.10;;;;;;5015195;28;20398;-82
2023/07/18 11:03:21;;;;;;;9.70;7.45;;;33.00;87.40;;;;;;4992017;28;20549;-79
2023/07/18 11:05:53;;;;;;;9.60;7.40;;;33.30;86.80;;;;;;5015073;28;20057;-84
2023/07/18 11:08:31;;;;;;;14.73;8.68;;;33.60;86.50;;;;;;5015064;28;20069;-82
2023/07/18 11:11:04;;;;;;;12.32;8.68;;;33.80;85.30;;;;;;5011666;28;20062;-82
2023/07/18 11:13:36;;;;;;;13.18;9.27;;;34.00;86.00;;;;;;5000454;28;20098;-76
2023/07/18 11:16:11;;;;;;;14.10;8.23;;;34.00;84.10;;;;;;4987755;28;20042;-76
2023/07/18 11:18:43;;;;;;;14.10;7.78;;;34.10;82.70;;;;;;5008769;28;20065;-82
2023/07/18 11:21:12;;;;;;;9.88;7.22;;;34.20;80.80;;;;;;5005525;28;20042;-81
2023/07/18 11:23:41;;;;;;;10.30;7.57;;;34.20;80.20;;;;;;4989785;28;20042;-80
2023/07/18 11:26:19;;;;;;;10.63;6.25;;;34.30;78.30;;;;;;5017313;28;20038;-83
2023/07/18 11:28:50;;;;;;;9.90;6.43;;;34.40;77.00;;;;;;4970832;28;20054;-80
2023/07/18 11:31:29;;;;;;;10.32;6.13;;;34.50;75.50;;;;;;5015772;28;20030;-80
2023/07/18 11:34:01;;;;;;;10.27;6.40;;;34.60;76.10;;;;;;4994827;28;20104;-81
2023/07/18 11:36:31;;;;;;;10.20;6.35;;;34.60;74.90;;;;;;5007376;28;20069;-75
2023/07/18 11:39:06;;;;;;;11.73;6.68;;;34.60;76.30;;;;;;4992144;28;20055;-74
2023/07/18 11:41:35;;;;;;;10.90;7.07;;;34.60;74.60;;;;;;4990682;28;20066;-78
2023/07/18 11:44:05;;;;;;;10.70;6.45;;;34.80;75.20;;;;;;4995396;28;20096;-77
2023/07/18 11:46:38;;;;;;;10.45;5.78;;;34.70;70.70;;;;;;4998854;28;20053;-73
2023/07/18 11:49:12;;;;;;;8.07;5.72;;;34.50;68.50;;;;;;5010965;28;20073;-74
2023/07/18 11:51:40;;;;;;;8.95;5.97;;;34.70;69.00;;;;;;4997905;28;20042;-82
2023/07/18 11:54:16;;;;;;;11.57;6.20;;;34.90;70.50;;;;;;4977090;28;20048;-76
2023/07/18 11:56:43;;;;;;;13.07;6.40;;;35.00;70.30;;;;;;4994266;28;20513;-82
2023/07/18 11:59:11;;;;;;;10.10;6.07;;;35.10;66.80;;;;;;5011284;28;20041;-86
2023/07/18 12:01:39;;;;;;;8.40;5.28;;;35.20;61.90;;;;;;4990711;28;20050;-84
2023/07/18 12:04:12;;;;;;;12.05;5.60;;;35.30;62.50;;;;;;4983184;28;20512;-82
2023/07/18 12:06:43;;;;;;;9.73;5.15;;;35.30;62.40;;;;;;5005347;28;20507;-76
2023/07/18 12:09:11;;;;;;;7.70;4.93;;;35.40;60.90;;;;;;5010480;28;20073;-75
2023/07/18 12:11:38;;;;;;;10.75;5.07;;;35.40;60.70;;;;;;5006218;28;20046;-77
2023/07/18 12:14:08;;;;;;;7.70;5.07;;;35.50;60.90;;;;;;5010437;28;20038;-78
2023/07/18 12:16:39;;;;;;;8.80;4.78;;;35.50;60.00;;;;;;5012402;28;20438;-82
2023/07/18 12:19:09;;;;;;;8.23;4.50;;;35.60;57.90;;;;;;4992466;28;20040;-79
2023/07/18 12:21:36;;;;;;;8.05;4.90;;;35.60;59.10;;;;;;5013473;28;20038;-75
2023/07/18 12:24:05;;;;;;;8.18;5.05;;;35.60;61.10;;;;;;4993531;28;20624;-75
2023/07/18 12:26:32;;;;;;;14.30;5.60;;;35.40;59.50;;;;;;4978834;28;20443;-80
2023/07/18 12:29:00;;;;;;;8.73;4.82;;;35.30;59.00;;;;;;5010061;28;20077;-84
2023/07/18 12:31:27;;;;;;;9.05;4.97;;;35.40;58.30;;;;;;4997556;28;20117;-83
2023/07/18 12:33:54;;;;;;;9.15;4.40;;;35.30;58.50;;;;;;5002333;28;20073;-80
2023/07/18 12:36:22;;;;;;;9.57;4.65;;;35.30;58.50;;;;;;4997984;28;20054;-78
2023/07/18 12:38:49;;;;;;;9.13;4.22;;;35.30;57.30;;;;;;5010109;28;20037;-81
2023/07/18 12:41:19;;;;;;;7.55;4.55;;;35.40;57.00;;;;;;4992685;28;20061;-73
2023/07/18 12:43:47;;;;;;;9.45;4.50;;;35.50;57.30;;;;;;4962126;28;20136;-78
2023/07/18 12:46:14;;;;;;;7.15;4.88;;;35.60;56.70;;;;;;5008822;28;20034;-81